createdAt,value
2019-04-20T00:00:17.143Z,0
2019-04-20T00:01:11.452Z,0
2019-04-20T00:02:24.003Z,0
2019-04-20T00:03:09.652Z,0
2019-04-20T00:04:05.324Z,0
2019-04-20T00:05:01.663Z,0
2019-04-20T00:06:01.976Z,0
2019-04-20T00:07:07.770Z,0
2019-04-20T00:08:16.602Z,0
2019-04-20T00:09:35.235Z,0
2019-04-20T00:10:28.743Z,0
2019-04-20T00:11:53.172Z,0
2019-04-20T00:13:11.333Z,0
2019-04-20T00:14:19.613Z,0
2019-04-20T00:14:47.961Z,0
2019-04-20T00:15:37.228Z,0
2019-04-20T00:16:38.331Z,0
2019-04-20T00:17:52.176Z,0
2019-04-20T00:19:04.988Z,0
2019-04-20T00:20:09.118Z,0
2019-04-20T00:20:50.212Z,0
2019-04-20T00:21:55.199Z,0
2019-04-20T00:22:59.808Z,0
2019-04-20T00:23:54.744Z,0
2019-04-20T00:24:49.551Z,0
2019-04-20T00:27:04.314Z,0
2019-04-20T00:29:05.396Z,0
2019-04-20T00:31:12.204Z,0
2019-04-20T00:32:37.297Z,0
2019-04-20T00:34:03.641Z,0
2019-04-20T00:34:49.368Z,0
2019-04-20T00:35:20.896Z,0
2019-04-20T00:36:24.255Z,0
2019-04-20T00:37:23.253Z,0
2019-04-20T00:38:22.787Z,0
2019-04-20T00:39:27.732Z,0
2019-04-20T00:40:19.703Z,0
2019-04-20T00:41:29.589Z,0
2019-04-20T00:42:52.361Z,0
2019-04-20T00:43:42.464Z,0
2019-04-20T00:44:56.152Z,0
2019-04-20T00:45:53.539Z,0
2019-04-20T00:47:19.828Z,0
2019-04-20T00:48:37.257Z,0
2019-04-20T00:50:05.374Z,0
2019-04-20T00:52:29.758Z,0
2019-04-20T00:53:44.754Z,0
2019-04-20T00:54:09.985Z,0
2019-04-20T00:55:02.343Z,0
2019-04-20T00:56:01.244Z,0
2019-04-20T00:57:45.410Z,0
2019-04-20T00:58:48.960Z,0
2019-04-20T01:00:45.864Z,0
2019-04-20T01:02:43.207Z,0
2019-04-20T01:04:47.410Z,0
2019-04-20T01:06:40.472Z,0
2019-04-20T01:07:53.441Z,0
2019-04-20T01:08:17.485Z,0
2019-04-20T01:09:09.815Z,0
2019-04-20T01:10:09.438Z,0
2019-04-20T01:11:12.310Z,0
2019-04-20T01:12:31.664Z,0
2019-04-20T01:13:28.724Z,0
2019-04-20T01:14:40.466Z,0
2019-04-20T01:15:51.401Z,0
2019-04-20T01:16:56.818Z,0
2019-04-20T01:17:23.233Z,0
2019-04-20T01:18:13.848Z,0
2019-04-20T01:19:11.082Z,0
2019-04-20T01:20:11.052Z,0
2019-04-20T01:21:35.405Z,0
2019-04-20T01:22:40.056Z,0
2019-04-20T01:23:47.918Z,0
2019-04-20T01:24:41.902Z,0
2019-04-20T01:25:46.957Z,0
2019-04-20T01:26:43.286Z,0
2019-04-20T01:28:27.330Z,0
2019-04-20T01:29:46.673Z,0
2019-04-20T01:30:59.854Z,0
2019-04-20T01:32:23.120Z,0
2019-04-20T01:33:54.902Z,0
2019-04-20T01:35:39.017Z,0
2019-04-20T01:37:32.685Z,0
2019-04-20T01:39:20.450Z,0
2019-04-20T01:40:04.790Z,0
2019-04-20T01:40:38.681Z,0
2019-04-20T01:41:37.728Z,0
2019-04-20T01:42:38.282Z,0
2019-04-20T01:43:37.435Z,0
2019-04-20T01:44:58.933Z,0
2019-04-20T01:45:56.616Z,0
2019-04-20T01:47:02.892Z,0
2019-04-20T01:48:05.090Z,0
2019-04-20T01:48:48.161Z,0
2019-04-20T01:50:03.255Z,0
2019-04-20T01:51:13.966Z,0
2019-04-20T01:52:28.530Z,0
2019-04-20T01:53:59.846Z,0
2019-04-20T01:56:00.959Z,0
2019-04-20T01:57:38.555Z,0
2019-04-20T01:59:34.343Z,0
2019-04-20T02:00:35.557Z,0
2019-04-20T02:01:09.624Z,0
2019-04-20T02:02:15.001Z,0
2019-04-20T02:03:13.045Z,0
2019-04-20T02:04:07.144Z,0
2019-04-20T02:05:22.731Z,0
2019-04-20T02:06:22.051Z,0
2019-04-20T02:07:11.948Z,0
2019-04-20T02:08:06.694Z,0
2019-04-20T02:09:13.348Z,0
2019-04-20T02:10:18.600Z,0
2019-04-20T02:11:18.445Z,0
2019-04-20T02:12:15.365Z,0
2019-04-20T02:13:09.719Z,0
2019-04-20T02:14:16.323Z,0
2019-04-20T02:15:29.026Z,0
2019-04-20T02:16:35.325Z,0
2019-04-20T02:17:42.213Z,0
2019-04-20T02:19:26.215Z,0
2019-04-20T02:21:37.655Z,0
2019-04-20T02:23:24.782Z,0
2019-04-20T02:24:13.062Z,0
2019-04-20T02:24:45.278Z,0
2019-04-20T02:25:42.362Z,0
2019-04-20T02:26:55.597Z,0
2019-04-20T02:28:53.435Z,0
2019-04-20T02:32:26.194Z,0
2019-04-20T02:35:52.593Z,0
2019-04-20T02:46:14.571Z,0
2019-04-20T02:49:50.601Z,0
2019-04-20T02:56:56.752Z,0
2019-04-20T03:00:05.140Z,0
2019-04-20T03:02:21.690Z,0
2019-04-20T03:03:48.869Z,0
2019-04-20T03:04:53.690Z,0
2019-04-20T03:06:26.159Z,0
2019-04-20T03:08:21.980Z,0
2019-04-20T03:10:45.954Z,0
2019-04-20T03:13:35.545Z,0
2019-04-20T03:15:37.354Z,0
2019-04-20T03:17:50.643Z,0
2019-04-20T03:19:40.733Z,0
2019-04-20T03:21:56.733Z,0
2019-04-20T03:24:58.709Z,0
2019-04-20T03:27:10.667Z,0
2019-04-20T03:29:09.541Z,0
2019-04-20T03:36:11.507Z,0
2019-04-20T03:38:46.849Z,0
2019-04-20T03:40:34.451Z,0
2019-04-20T03:41:43.146Z,0
2019-04-20T03:42:11.057Z,0
2019-04-20T03:43:02.486Z,0
2019-04-20T03:44:26.325Z,0
2019-04-20T03:45:26.281Z,0
2019-04-20T03:46:36.377Z,0
2019-04-20T03:47:44.348Z,0
2019-04-20T03:49:47.903Z,0
2019-04-20T03:52:07.723Z,0
2019-04-20T03:54:15.607Z,0
2019-04-20T03:56:01.884Z,0
2019-04-20T03:58:37.312Z,0
2019-04-20T04:00:45.385Z,0
2019-04-20T04:04:09.082Z,0
2019-04-20T04:06:01.732Z,0
2019-04-20T04:07:01.763Z,0
2019-04-20T04:08:10.275Z,0
2019-04-20T04:09:28.507Z,0
2019-04-20T04:11:25.914Z,0
2019-04-20T04:12:41.693Z,0
2019-04-20T04:13:01.043Z,0
2019-04-20T04:13:57.199Z,0
2019-04-20T04:14:57.818Z,0
2019-04-20T04:16:21.941Z,0
2019-04-20T04:17:13.204Z,0
2019-04-20T04:18:27.695Z,0
2019-04-20T04:19:38.158Z,0
2019-04-20T04:20:31.446Z,0
2019-04-20T04:21:46.672Z,0
2019-04-20T04:23:36.458Z,0
2019-04-20T04:25:12.022Z,0
2019-04-20T04:26:51.017Z,0
2019-04-20T04:28:47.298Z,0
2019-04-20T04:30:59.255Z,0
2019-04-20T04:33:57.766Z,0
2019-04-20T04:35:51.213Z,0
2019-04-20T04:37:53.220Z,0
2019-04-20T04:40:20.382Z,0
2019-04-20T04:42:52.153Z,0
2019-04-20T04:44:39.837Z,0
2019-04-20T04:45:26.516Z,0
2019-04-20T04:45:58.312Z,0
2019-04-20T04:47:18.096Z,0
2019-04-20T04:47:57.752Z,0
2019-04-20T04:49:33.281Z,0
2019-04-20T04:50:31.420Z,0
2019-04-20T04:51:30.583Z,0
2019-04-20T04:52:42.850Z,0
2019-04-20T04:53:57.895Z,0
2019-04-20T04:55:19.848Z,0
2019-04-20T04:56:14.852Z,0
2019-04-20T04:56:40.241Z,0
2019-04-20T04:57:37.201Z,5
2019-04-20T04:58:38.862Z,5
2019-04-20T04:59:38.813Z,5
2019-04-20T05:00:46.606Z,5
2019-04-20T05:01:53.785Z,5
2019-04-20T05:03:22.842Z,5
2019-04-20T05:05:17.064Z,5
2019-04-20T05:07:18.707Z,5
2019-04-20T05:08:38.547Z,5
2019-04-20T05:09:19.179Z,5
2019-04-20T05:09:55.510Z,5
2019-04-20T05:10:56.725Z,5
2019-04-20T05:12:23.816Z,5
2019-04-20T05:12:58.733Z,5
2019-04-20T05:14:40.431Z,5
2019-04-20T05:16:03.342Z,5
2019-04-20T05:18:11.312Z,5
2019-04-20T05:20:33.687Z,5
2019-04-20T05:23:00.162Z,5
2019-04-20T05:24:42.252Z,10
2019-04-20T05:27:06.979Z,10
2019-04-20T05:28:45.706Z,10
2019-04-20T05:29:37.563Z,10
2019-04-20T05:30:01.943Z,10
2019-04-20T05:31:18.538Z,10
2019-04-20T05:32:46.801Z,10
2019-04-20T05:34:14.225Z,10
2019-04-20T05:36:41.136Z,10
2019-04-20T05:39:26.423Z,10
2019-04-20T05:41:45.086Z,15
2019-04-20T05:43:54.271Z,15
2019-04-20T05:45:44.675Z,35
2019-04-20T05:47:58.186Z,150
2019-04-20T05:50:00.611Z,160
2019-04-20T05:52:28.755Z,185
2019-04-20T05:55:02.149Z,210
2019-04-20T05:57:29.995Z,210
2019-04-20T05:59:55.564Z,200
2019-04-20T06:02:31.465Z,185
2019-04-20T06:05:08.271Z,180
2019-04-20T06:07:35.607Z,235
2019-04-20T06:10:20.205Z,250
2019-04-20T06:12:55.285Z,255
2019-04-20T06:14:19.164Z,260
2019-04-20T06:16:17.783Z,265
2019-04-20T06:18:33.481Z,245
2019-04-20T06:21:02.032Z,200
2019-04-20T06:24:01.660Z,190
2019-04-20T06:27:07.963Z,225
2019-04-20T06:29:13.578Z,230
2019-04-20T06:31:17.836Z,230
2019-04-20T06:34:25.493Z,220
2019-04-20T06:37:09.376Z,210
2019-04-20T06:40:36.233Z,195
2019-04-20T06:43:31.381Z,185
2019-04-20T06:46:09.428Z,165
2019-04-20T06:48:58.418Z,150
2019-04-20T06:51:21.994Z,150
2019-04-20T06:53:48.537Z,150
2019-04-20T06:56:05.196Z,150
2019-04-20T06:58:33.055Z,155
2019-04-20T07:01:05.453Z,160
2019-04-20T07:04:20.933Z,165
2019-04-20T07:10:23.965Z,180
2019-04-20T07:12:36.772Z,180
2019-04-20T07:14:00.878Z,180
2019-04-20T07:15:28.370Z,180
2019-04-20T07:20:09.723Z,185
2019-04-20T07:22:59.840Z,185
2019-04-20T07:25:42.080Z,185
2019-04-20T07:28:16.956Z,190
2019-04-20T07:30:44.714Z,190
2019-04-20T07:32:52.021Z,190
2019-04-20T07:35:13.902Z,190
2019-04-20T07:40:35.346Z,190
2019-04-20T07:43:52.610Z,195
2019-04-20T07:46:46.705Z,185
2019-04-20T07:49:12.532Z,180
2019-04-20T07:51:01.074Z,175
2019-04-20T07:51:49.043Z,175
2019-04-20T07:52:46.066Z,175
2019-04-20T07:57:53.567Z,160
2019-04-20T07:59:12.903Z,160
2019-04-20T08:01:44.723Z,155
2019-04-20T08:04:28.460Z,145
2019-04-20T08:06:02.193Z,140
2019-04-20T08:07:01.992Z,140
2019-04-20T08:07:53.166Z,140
2019-04-20T08:09:40.623Z,135
2019-04-20T08:11:06.889Z,130
2019-04-20T08:13:31.809Z,125
2019-04-20T08:16:37.706Z,120
2019-04-20T08:19:27.092Z,110
2019-04-20T08:21:50.889Z,105
2019-04-20T08:24:27.505Z,100
2019-04-20T08:26:08.321Z,100
2019-04-20T08:27:04.540Z,95
2019-04-20T08:27:39.895Z,95
2019-04-20T08:29:17.793Z,95
2019-04-20T08:31:16.629Z,95
2019-04-20T08:33:13.056Z,95
2019-04-20T08:36:16.099Z,90
2019-04-20T08:41:20.403Z,85
2019-04-20T08:44:08.057Z,85
2019-04-20T08:46:58.353Z,80
2019-04-20T08:49:34.671Z,85
2019-04-20T08:52:22.723Z,85
2019-04-20T08:54:57.573Z,80
2019-04-20T08:56:28.985Z,80
2019-04-20T08:57:09.043Z,80
2019-04-20T08:57:45.048Z,80
2019-04-20T08:58:43.390Z,80
2019-04-20T08:59:56.000Z,80
2019-04-20T09:01:18.259Z,80
2019-04-20T09:01:51.054Z,80
2019-04-20T09:03:12.837Z,80
2019-04-20T09:04:44.876Z,80
2019-04-20T09:06:00.922Z,80
2019-04-20T09:07:25.071Z,80
2019-04-20T09:08:33.741Z,80
2019-04-20T09:10:59.656Z,80
2019-04-20T09:13:02.112Z,85
2019-04-20T09:14:00.748Z,85
2019-04-20T09:14:23.395Z,85
2019-04-20T09:15:25.303Z,80
2019-04-20T09:16:34.727Z,80
2019-04-20T09:17:54.699Z,80
2019-04-20T09:19:04.228Z,85
2019-04-20T09:20:06.922Z,80
2019-04-20T09:21:11.373Z,85
2019-04-20T09:22:33.903Z,75
2019-04-20T09:24:34.366Z,85
2019-04-20T09:27:08.527Z,80
2019-04-20T09:28:25.459Z,80
2019-04-20T09:29:46.323Z,80
2019-04-20T09:31:30.624Z,85
2019-04-20T09:33:28.639Z,85
2019-04-20T09:35:42.715Z,85
2019-04-20T09:37:36.678Z,85
2019-04-20T09:39:14.847Z,85
2019-04-20T09:41:01.008Z,85
2019-04-20T09:42:07.440Z,90
2019-04-20T09:42:20.608Z,85
2019-04-20T09:43:26.415Z,85
2019-04-20T09:44:37.405Z,85
2019-04-20T09:46:03.544Z,85
2019-04-20T09:46:26.296Z,85
2019-04-20T09:47:46.767Z,80
2019-04-20T09:49:12.818Z,75
2019-04-20T09:50:52.913Z,70
2019-04-20T09:52:51.169Z,75
2019-04-20T09:54:41.200Z,75
2019-04-20T09:56:27.984Z,75
2019-04-20T09:58:00.939Z,75
2019-04-20T09:59:53.517Z,75
2019-04-20T10:01:32.543Z,75
2019-04-20T10:02:32.897Z,75
2019-04-20T10:02:54.670Z,75
2019-04-20T10:03:50.339Z,75
2019-04-20T10:04:51.197Z,75
2019-04-20T10:05:51.328Z,75
2019-04-20T10:06:51.779Z,70
2019-04-20T10:08:08.213Z,75
2019-04-20T10:09:07.763Z,75
2019-04-20T10:09:57.835Z,75
2019-04-20T10:10:59.407Z,75
2019-04-20T10:11:55.878Z,75
2019-04-20T10:12:50.526Z,75
2019-04-20T10:13:50.671Z,75
2019-04-20T10:14:53.079Z,75
2019-04-20T10:15:50.418Z,75
2019-04-20T10:16:51.712Z,75
2019-04-20T10:17:51.900Z,75
2019-04-20T10:19:02.578Z,75
2019-04-20T10:19:54.029Z,75
2019-04-20T10:22:00.268Z,75
2019-04-20T10:22:15.991Z,75
2019-04-20T10:23:16.374Z,75
2019-04-20T10:24:18.783Z,75
2019-04-20T10:25:18.287Z,80
2019-04-20T10:26:14.903Z,75
2019-04-20T10:27:16.754Z,75
2019-04-20T10:28:16.474Z,75
2019-04-20T10:29:13.678Z,75
2019-04-20T10:30:18.537Z,75
2019-04-20T10:31:17.345Z,75
2019-04-20T10:32:34.075Z,75
2019-04-20T10:33:17.512Z,70
2019-04-20T10:34:15.675Z,70
2019-04-20T10:35:21.505Z,70
2019-04-20T10:36:15.322Z,70
2019-04-20T10:37:17.269Z,70
2019-04-20T10:38:17.502Z,70
2019-04-20T10:39:16.314Z,70
2019-04-20T10:40:45.847Z,70
2019-04-20T10:42:00.448Z,70
2019-04-20T10:42:20.124Z,70
2019-04-20T10:43:19.791Z,70
2019-04-20T10:44:18.614Z,70
2019-04-20T10:45:16.727Z,70
2019-04-20T10:46:17.835Z,70
2019-04-20T10:47:18.871Z,70
2019-04-20T10:48:17.229Z,70
2019-04-20T10:49:20.207Z,70
2019-04-20T10:50:16.953Z,70
2019-04-20T10:51:17.692Z,70
2019-04-20T10:52:17.561Z,70
2019-04-20T10:53:15.232Z,70
2019-04-20T10:54:16.026Z,70
2019-04-20T10:55:18.580Z,70
2019-04-20T10:56:19.079Z,70
2019-04-20T10:57:17.350Z,70
2019-04-20T10:58:15.511Z,70
2019-04-20T10:59:15.893Z,70
2019-04-20T11:00:17.238Z,70
2019-04-20T11:01:14.156Z,70
2019-04-20T11:02:15.971Z,70
2019-04-20T11:03:13.658Z,70
2019-04-20T11:04:15.194Z,70
2019-04-20T11:05:16.806Z,70
2019-04-20T11:06:18.539Z,70
2019-04-20T11:07:14.627Z,70
2019-04-20T11:08:14.832Z,70
2019-04-20T11:09:14.416Z,70
2019-04-20T11:11:08.791Z,70
2019-04-20T11:11:40.669Z,70
2019-04-20T11:12:26.796Z,70
2019-04-20T11:13:25.528Z,70
2019-04-20T11:14:48.032Z,70
2019-04-20T11:15:24.310Z,70
2019-04-20T11:16:24.323Z,70
2019-04-20T11:17:28.296Z,70
2019-04-20T11:18:27.738Z,70
2019-04-20T11:19:25.257Z,70
2019-04-20T11:20:25.535Z,70
2019-04-20T11:21:28.222Z,70
2019-04-20T11:22:26.723Z,70
2019-04-20T11:23:27.016Z,70
2019-04-20T11:24:26.016Z,70
2019-04-20T11:25:26.153Z,70
2019-04-20T11:26:28.450Z,70
2019-04-20T11:27:25.812Z,70
2019-04-20T11:28:28.093Z,70
2019-04-20T11:29:29.033Z,70
2019-04-20T11:30:26.342Z,70
2019-04-20T11:31:39.421Z,70
2019-04-20T11:32:30.136Z,70
2019-04-20T11:33:27.905Z,70
2019-04-20T11:34:47.101Z,70
2019-04-20T11:35:48.485Z,70
2019-04-20T11:36:27.978Z,70
2019-04-20T11:37:28.965Z,70
2019-04-20T11:38:30.834Z,70
2019-04-20T11:39:29.123Z,70
2019-04-20T11:40:26.654Z,70
2019-04-20T11:41:41.707Z,70
2019-04-20T11:42:28.321Z,70
2019-04-20T11:43:27.132Z,70
2019-04-20T11:44:30.122Z,70
2019-04-20T11:45:26.620Z,70
2019-04-20T11:46:26.939Z,70
2019-04-20T11:47:25.028Z,70
2019-04-20T11:48:27.165Z,70
2019-04-20T11:49:28.358Z,70
2019-04-20T11:50:29.243Z,70
2019-04-20T11:51:27.255Z,70
2019-04-20T11:52:42.701Z,70
2019-04-20T11:57:58.843Z,65
2019-04-20T11:58:49.067Z,70
2019-04-20T11:59:48.405Z,70
2019-04-20T12:01:23.438Z,70
2019-04-20T12:02:20.026Z,65
2019-04-20T12:03:10.774Z,65
2019-04-20T12:04:47.039Z,70
2019-04-20T12:05:53.605Z,65
2019-04-20T12:06:18.923Z,70
2019-04-20T12:07:11.461Z,70
2019-04-20T12:08:09.548Z,65
2019-04-20T12:09:10.774Z,70
2019-04-20T12:10:31.493Z,65
2019-04-20T12:12:08.727Z,65
2019-04-20T12:12:59.490Z,65
2019-04-20T12:13:28.953Z,70
2019-04-20T12:14:25.962Z,70
2019-04-20T12:15:26.483Z,70
2019-04-20T12:16:27.495Z,65
2019-04-20T12:17:26.402Z,65
2019-04-20T12:18:27.465Z,70
2019-04-20T12:19:25.437Z,65
2019-04-20T12:20:27.519Z,65
2019-04-20T12:21:26.467Z,70
2019-04-20T12:22:24.302Z,70
2019-04-20T12:23:28.445Z,65
2019-04-20T12:24:25.664Z,65
2019-04-20T12:25:24.299Z,60
2019-04-20T12:26:25.284Z,65
2019-04-20T12:27:27.523Z,60
2019-04-20T12:28:29.474Z,65
2019-04-20T12:29:27.843Z,65
2019-04-20T12:30:27.897Z,65
2019-04-20T12:31:39.647Z,65
2019-04-20T12:32:26.952Z,65
2019-04-20T12:33:28.423Z,65
2019-04-20T12:34:28.564Z,65
2019-04-20T12:35:27.639Z,65
2019-04-20T12:36:28.022Z,65
2019-04-20T12:37:25.561Z,65
2019-04-20T12:38:27.396Z,65
2019-04-20T12:39:28.962Z,65
2019-04-20T12:40:28.024Z,65
2019-04-20T12:41:53.268Z,65
2019-04-20T12:42:28.840Z,65
2019-04-20T12:43:27.671Z,65
2019-04-20T12:44:29.656Z,65
2019-04-20T12:45:29.275Z,65
2019-04-20T12:46:33.717Z,65
2019-04-20T12:47:27.872Z,65
2019-04-20T12:48:27.041Z,65
2019-04-20T12:49:27.477Z,65
2019-04-20T12:50:29.726Z,65
2019-04-20T12:51:50.320Z,65
2019-04-20T12:52:26.306Z,65
2019-04-20T12:53:28.292Z,65
2019-04-20T12:54:29.015Z,65
2019-04-20T12:55:26.420Z,65
2019-04-20T12:56:28.488Z,65
2019-04-20T12:57:29.497Z,65
2019-04-20T12:58:26.378Z,65
2019-04-20T12:59:29.540Z,65
2019-04-20T13:00:27.691Z,65
2019-04-20T13:01:30.957Z,65
2019-04-20T13:02:27.179Z,65
2019-04-20T13:03:29.639Z,65
2019-04-20T13:04:30.143Z,65
2019-04-20T13:05:25.557Z,65
2019-04-20T13:06:27.907Z,65
2019-04-20T13:07:26.537Z,65
2019-04-20T13:08:53.687Z,65
2019-04-20T13:09:26.391Z,65
2019-04-20T13:10:29.519Z,65
2019-04-20T13:11:28.671Z,65
2019-04-20T13:12:30.453Z,65
2019-04-20T13:13:26.224Z,65
2019-04-20T13:14:26.310Z,65
2019-04-20T13:15:29.028Z,60
2019-04-20T13:16:26.124Z,65
2019-04-20T13:17:26.732Z,60
2019-04-20T13:18:27.328Z,60
2019-04-20T13:19:27.075Z,60
2019-04-20T13:20:25.835Z,60
2019-04-20T13:21:27.959Z,60
2019-04-20T13:22:28.670Z,60
2019-04-20T13:23:26.805Z,60
2019-04-20T13:24:29.143Z,60
2019-04-20T13:25:28.778Z,60
2019-04-20T13:26:26.985Z,60
2019-04-20T13:27:31.075Z,60
2019-04-20T13:28:26.228Z,60
2019-04-20T13:29:26.537Z,60
2019-04-20T13:30:27.913Z,60
2019-04-20T13:31:26.774Z,60
2019-04-20T13:32:26.171Z,55
2019-04-20T13:33:25.766Z,60
2019-04-20T13:34:26.369Z,55
2019-04-20T13:35:26.100Z,55
2019-04-20T13:36:27.077Z,55
2019-04-20T13:37:26.372Z,55
2019-04-20T13:38:25.791Z,55
2019-04-20T13:39:26.742Z,55
2019-04-20T13:40:25.974Z,55
2019-04-20T13:41:27.663Z,55
2019-04-20T13:42:39.331Z,55
2019-04-20T13:43:27.926Z,55
2019-04-20T13:44:27.275Z,55
2019-04-20T13:45:24.785Z,55
2019-04-20T13:46:25.487Z,55
2019-04-20T13:47:28.077Z,55
2019-04-20T13:48:25.046Z,55
2019-04-20T13:49:24.950Z,55
2019-04-20T13:50:29.350Z,55
2019-04-20T13:51:26.533Z,50
2019-04-20T13:52:24.714Z,50
2019-04-20T13:53:26.259Z,50
2019-04-20T13:54:36.241Z,50
2019-04-20T13:55:31.842Z,50
2019-04-20T13:56:26.311Z,50
2019-04-20T13:57:26.300Z,50
2019-04-20T13:58:25.917Z,50
2019-04-20T13:59:26.329Z,50
2019-04-20T14:04:44.478Z,50
2019-04-20T14:04:59.525Z,50
2019-04-20T14:08:05.798Z,50
2019-04-20T14:08:21.162Z,50
2019-04-20T14:09:21.320Z,50
2019-04-20T14:10:23.439Z,50
2019-04-20T14:11:21.031Z,50
2019-04-20T14:13:05.013Z,50
2019-04-20T14:13:48.968Z,50
2019-04-20T14:14:23.076Z,50
2019-04-20T14:15:22.899Z,50
2019-04-20T14:16:20.696Z,50
2019-04-20T14:17:23.408Z,50
2019-04-20T14:18:20.493Z,50
2019-04-20T14:19:25.008Z,50
2019-04-20T14:20:29.880Z,50
2019-04-20T14:21:23.907Z,50
2019-04-20T14:22:22.947Z,45
2019-04-20T14:23:21.594Z,50
2019-04-20T14:24:24.759Z,45
2019-04-20T14:25:21.301Z,50
2019-04-20T14:26:21.503Z,45
2019-04-20T14:27:24.588Z,45
2019-04-20T14:28:22.669Z,45
2019-04-20T14:29:23.488Z,45
2019-04-20T14:30:22.351Z,50
2019-04-20T14:31:22.224Z,50
2019-04-20T14:32:25.406Z,50
2019-04-20T14:33:23.063Z,50
2019-04-20T14:34:24.495Z,50
2019-04-20T14:35:20.758Z,45
2019-04-20T14:36:24.050Z,45
2019-04-20T14:37:20.842Z,50
2019-04-20T14:38:22.763Z,45
2019-04-20T14:39:24.412Z,45
2019-04-20T14:40:22.180Z,45
2019-04-20T14:41:22.702Z,45
2019-04-20T14:42:54.776Z,50
2019-04-20T14:43:22.389Z,50
2019-04-20T14:44:23.358Z,50
2019-04-20T14:45:21.128Z,45
2019-04-20T14:46:26.114Z,45
2019-04-20T14:47:21.964Z,45
2019-04-20T14:48:22.754Z,45
2019-04-20T14:49:22.950Z,45
2019-04-20T14:50:23.410Z,45
2019-04-20T14:51:23.733Z,45
2019-04-20T14:52:21.714Z,45
2019-04-20T14:53:23.224Z,45
2019-04-20T14:54:23.405Z,45
2019-04-20T14:55:25.842Z,45
2019-04-20T14:56:23.380Z,45
2019-04-20T14:57:24.017Z,45
2019-04-20T14:58:21.653Z,45
2019-04-20T14:59:23.227Z,45
2019-04-20T15:00:23.589Z,45
2019-04-20T15:01:21.198Z,45
2019-04-20T15:02:22.146Z,45
2019-04-20T15:03:22.395Z,45
2019-04-20T15:04:34.691Z,45
2019-04-20T15:05:23.224Z,45
2019-04-20T15:06:23.313Z,45
2019-04-20T15:07:22.480Z,40
2019-04-20T15:08:21.202Z,40
2019-04-20T15:09:24.662Z,40
2019-04-20T15:10:22.605Z,40
2019-04-20T15:11:22.946Z,40
2019-04-20T15:12:22.173Z,40
2019-04-20T15:13:23.076Z,40
2019-04-20T15:14:22.668Z,40
2019-04-20T15:15:23.590Z,40
2019-04-20T15:16:24.267Z,40
2019-04-20T15:17:22.016Z,40
2019-04-20T15:18:22.191Z,40
2019-04-20T15:19:23.821Z,45
2019-04-20T15:20:21.919Z,40
2019-04-20T15:21:22.572Z,40
2019-04-20T15:22:21.314Z,40
2019-04-20T15:23:21.553Z,35
2019-04-20T15:24:23.445Z,35
2019-04-20T15:25:25.429Z,35
2019-04-20T15:26:24.155Z,35
2019-04-20T15:27:22.685Z,35
2019-04-20T15:28:24.196Z,35
2019-04-20T15:29:26.085Z,35
2019-04-20T15:30:24.375Z,35
2019-04-20T15:31:23.795Z,35
2019-04-20T15:32:22.962Z,35
2019-04-20T15:33:21.599Z,35
2019-04-20T15:34:21.832Z,35
2019-04-20T15:35:28.178Z,35
2019-04-20T15:36:23.911Z,35
2019-04-20T15:37:23.405Z,30
2019-04-20T15:38:21.055Z,30
2019-04-20T15:39:21.535Z,30
2019-04-20T15:40:23.384Z,30
2019-04-20T15:41:27.433Z,30
2019-04-20T15:42:21.750Z,30
2019-04-20T15:43:33.290Z,30
2019-04-20T15:44:22.104Z,30
2019-04-20T15:45:22.893Z,30
2019-04-20T15:46:25.466Z,30
2019-04-20T15:47:22.942Z,30
2019-04-20T15:48:23.839Z,30
2019-04-20T15:49:26.191Z,30
2019-04-20T15:50:25.642Z,30
2019-04-20T15:51:23.680Z,30
2019-04-20T15:52:52.629Z,30
2019-04-20T15:53:23.622Z,25
2019-04-20T15:54:23.256Z,25
2019-04-20T15:55:49.150Z,25
2019-04-20T15:56:25.289Z,25
2019-04-20T15:57:38.539Z,25
2019-04-20T15:58:26.131Z,20
2019-04-20T15:59:24.255Z,20
2019-04-20T16:00:26.372Z,20
2019-04-20T16:01:26.068Z,20
2019-04-20T16:02:25.096Z,20
2019-04-20T16:03:23.270Z,20
2019-04-20T16:04:46.840Z,20
2019-04-20T16:05:25.812Z,20
2019-04-20T16:06:25.124Z,20
2019-04-20T16:07:26.201Z,15
2019-04-20T16:08:24.229Z,15
2019-04-20T16:09:27.202Z,15
2019-04-20T16:10:25.032Z,15
2019-04-20T16:11:24.216Z,15
2019-04-20T16:12:24.720Z,15
2019-04-20T16:13:53.822Z,15
2019-04-20T16:14:25.680Z,15
2019-04-20T16:15:22.606Z,15
2019-04-20T16:16:23.746Z,15
2019-04-20T16:17:38.928Z,15
2019-04-20T16:18:24.856Z,15
2019-04-20T16:20:14.635Z,15
2019-04-20T16:21:09.654Z,15
2019-04-20T16:21:43.779Z,15
2019-04-20T16:22:31.623Z,15
2019-04-20T16:23:32.351Z,15
2019-04-20T16:24:37.577Z,15
2019-04-20T16:25:35.339Z,10
2019-04-20T16:26:33.486Z,10
2019-04-20T16:27:31.647Z,10
2019-04-20T16:28:32.600Z,10
2019-04-20T16:29:33.474Z,10
2019-04-20T16:30:31.407Z,10
2019-04-20T16:31:33.518Z,10
2019-04-20T16:32:30.773Z,10
2019-04-20T16:33:30.488Z,10
2019-04-20T16:34:33.626Z,10
2019-04-20T16:35:32.156Z,10
2019-04-20T16:36:32.408Z,10
2019-04-20T16:37:32.598Z,5
2019-04-20T16:38:35.733Z,5
2019-04-20T16:39:32.053Z,5
2019-04-20T16:40:31.422Z,5
2019-04-20T16:41:33.209Z,5
2019-04-20T16:42:32.077Z,5
2019-04-20T16:43:51.670Z,5
2019-04-20T16:44:33.168Z,5
2019-04-20T16:45:32.990Z,5
2019-04-20T16:46:38.247Z,5
2019-04-20T16:47:32.769Z,5
2019-04-20T16:48:33.797Z,5
2019-04-20T16:49:32.721Z,5
2019-04-20T16:50:30.981Z,5
2019-04-20T16:51:31.977Z,5
2019-04-20T16:52:32.693Z,5
2019-04-20T16:53:34.912Z,5
2019-04-20T16:54:32.907Z,5
2019-04-20T16:55:32.556Z,5
2019-04-20T16:56:36.929Z,5
2019-04-20T16:57:31.856Z,5
2019-04-20T16:58:31.481Z,5
2019-04-20T17:04:21.882Z,5
2019-04-20T17:04:42.871Z,5
2019-04-20T17:05:39.077Z,5
2019-04-20T17:06:38.128Z,5
2019-04-20T17:07:40.265Z,5
2019-04-20T17:08:43.168Z,5
2019-04-20T17:09:38.235Z,5
2019-04-20T17:10:35.442Z,5
2019-04-20T17:11:36.753Z,5
2019-04-20T17:12:37.487Z,5
2019-04-20T17:14:04.335Z,5
2019-04-20T17:14:38.345Z,5
2019-04-20T17:15:37.301Z,5
2019-04-20T17:16:38.198Z,5
2019-04-20T17:17:39.813Z,5
2019-04-20T17:18:37.363Z,5
2019-04-20T17:19:38.119Z,5
2019-04-20T17:24:56.617Z,5
2019-04-20T17:25:14.124Z,0
2019-04-20T17:26:14.680Z,0
2019-04-20T17:27:12.910Z,0
2019-04-20T17:28:24.908Z,0
2019-04-20T17:29:13.707Z,0
2019-04-20T17:30:17.572Z,0
2019-04-20T17:31:15.550Z,0
2019-04-20T17:32:13.808Z,0
2019-04-20T17:33:13.855Z,0
2019-04-20T17:35:30.549Z,0
2019-04-20T17:36:30.853Z,0
2019-04-20T17:39:30.945Z,0
2019-04-20T17:41:39.829Z,0
2019-04-20T17:43:19.568Z,0
2019-04-20T17:44:58.341Z,0
2019-04-20T17:46:09.820Z,0
2019-04-20T17:47:50.009Z,0
2019-04-20T17:53:41.560Z,0
2019-04-20T17:54:19.542Z,0
2019-04-20T17:54:58.963Z,0
2019-04-20T17:56:07.281Z,0
2019-04-20T17:57:02.251Z,0
2019-04-20T17:58:05.571Z,0
2019-04-20T17:59:01.809Z,0
2019-04-20T18:00:21.052Z,0
2019-04-20T18:01:34.609Z,0
2019-04-20T18:03:27.035Z,0
2019-04-20T18:06:34.662Z,0
2019-04-20T18:08:48.247Z,0
2019-04-20T18:10:50.568Z,0
2019-04-20T18:11:42.502Z,0
2019-04-20T18:12:48.370Z,0
2019-04-20T18:13:35.953Z,0
2019-04-20T18:15:35.743Z,0
2019-04-20T18:17:29.195Z,0
2019-04-20T18:19:08.301Z,0
2019-04-20T18:19:38.648Z,0
2019-04-20T18:20:28.305Z,0
2019-04-20T18:21:27.084Z,0
2019-04-20T18:22:26.137Z,0
2019-04-20T18:23:44.387Z,0
2019-04-20T18:26:22.513Z,0
2019-04-20T18:28:18.373Z,0
2019-04-20T18:30:29.279Z,0
2019-04-20T18:31:13.471Z,0
2019-04-20T18:31:47.349Z,0
2019-04-20T18:32:47.848Z,0
2019-04-20T18:33:50.555Z,0
2019-04-20T18:35:04.476Z,0
2019-04-20T18:35:57.992Z,0
2019-04-20T18:37:00.489Z,0
2019-04-20T18:37:59.703Z,0
2019-04-20T18:39:18.436Z,0
2019-04-20T18:40:32.127Z,0
2019-04-20T18:41:38.240Z,0
2019-04-20T18:42:32.777Z,0
2019-04-20T18:43:26.004Z,0
2019-04-20T18:44:10.620Z,0
2019-04-20T18:46:49.198Z,0
2019-04-20T18:49:09.684Z,0
2019-04-20T18:50:32.524Z,0
2019-04-20T18:50:57.529Z,0
2019-04-20T18:51:47.998Z,0
2019-04-20T18:52:45.632Z,0
2019-04-20T18:54:16.110Z,0
2019-04-20T18:55:01.511Z,0
2019-04-20T18:56:10.222Z,0
2019-04-20T18:57:01.573Z,0
2019-04-20T18:57:50.824Z,0
2019-04-20T18:58:47.009Z,0
2019-04-20T19:00:07.852Z,0
2019-04-20T19:01:01.651Z,0
2019-04-20T19:01:54.983Z,0
2019-04-20T19:03:20.066Z,0
2019-04-20T19:03:56.112Z,0
2019-04-20T19:04:48.056Z,0
2019-04-20T19:05:47.754Z,0
2019-04-20T19:06:47.926Z,0
2019-04-20T19:08:17.847Z,0
2019-04-20T19:09:00.797Z,0
2019-04-20T19:09:48.593Z,0
2019-04-20T19:11:11.286Z,0
2019-04-20T19:12:14.551Z,0